Aviation Digital Data Service (ADDS)

Output produced by METARs form (0421 UTC 19 February 2019)
found at http://www.aviationweather.gov/metar/data/
 
METAR text: CYHD 190400Z AUTO 25004KT 9SM CLR M20/M22 A3040 RMK SLP346
Conditions at: CYHD (DRYDEN AIRPORT , ON, CA) observed 0400 UTC 19 February 2019
Temperature: -20.0°C (-4°F)
Dewpoint: -22.0°C (-8°F) [RH = 84%]
Pressure (altimeter): 30.40 inches Hg (1029.5 mb)
[Sea-level pressure: 1034.6 mb]
Winds: from the WSW (250 degrees) at 5 MPH (4 knots; 2.1 m/s)
Visibility: 9 miles (14 km)
Ceiling: at least 12,000 feet AGL
Clouds: sky clear below 12,000 feet AGL
Weather: no significant weather observed at this time

METAR text: CYHD 190300Z AUTO 25005KT 9SM CLR M19/M23 A3040 RMK SLP346
Conditions at: CYHD (DRYDEN AIRPORT , ON, CA) observed 0300 UTC 19 February 2019
Temperature: -19.0°C (-2°F)
Dewpoint: -23.0°C (-9°F) [RH = 71%]
Pressure (altimeter): 30.40 inches Hg (1029.5 mb)
[Sea-level pressure: 1034.6 mb]
Winds: from the WSW (250 degrees) at 6 MPH (5 knots; 2.6 m/s)
Visibility: 9 miles (14 km)
Ceiling: at least 12,000 feet AGL
Clouds: sky clear below 12,000 feet AGL
Weather: no significant weather observed at this time

METAR text: CYHD 190200Z AUTO 24004KT 9SM CLR M17/M22 A3040 RMK SLP347
Conditions at: CYHD (DRYDEN AIRPORT , ON, CA) observed 0200 UTC 19 February 2019
Temperature: -17.0°C ( 1°F)
Dewpoint: -22.0°C (-8°F) [RH = 65%]
Pressure (altimeter): 30.40 inches Hg (1029.5 mb)
[Sea-level pressure: 1034.7 mb]
Winds: from the WSW (240 degrees) at 5 MPH (4 knots; 2.1 m/s)
Visibility: 9 miles (14 km)
Ceiling: at least 12,000 feet AGL
Clouds: sky clear below 12,000 feet AGL
Weather: no significant weather observed at this time

METAR text: CYHD 190100Z AUTO 26004KT 9SM CLR M17/M22 A3040 RMK SLP347
Conditions at: CYHD (DRYDEN AIRPORT , ON, CA) observed 0100 UTC 19 February 2019
Temperature: -17.0°C ( 1°F)
Dewpoint: -22.0°C (-8°F) [RH = 65%]
Pressure (altimeter): 30.40 inches Hg (1029.5 mb)
[Sea-level pressure: 1034.7 mb]
Winds: from the W (260 degrees) at 5 MPH (4 knots; 2.1 m/s)
Visibility: 9 miles (14 km)
Ceiling: at least 12,000 feet AGL
Clouds: sky clear below 12,000 feet AGL
Weather: no significant weather observed at this time

METAR text: CYHD 190000Z AUTO 29004KT 9SM CLR M17/M22 A3040 RMK SLP345
Conditions at: CYHD (DRYDEN AIRPORT , ON, CA) observed 0000 UTC 19 February 2019
Temperature: -17.0°C ( 1°F)
Dewpoint: -22.0°C (-8°F) [RH = 65%]
Pressure (altimeter): 30.40 inches Hg (1029.5 mb)
[Sea-level pressure: 1034.5 mb]
Winds: from the WNW (290 degrees) at 5 MPH (4 knots; 2.1 m/s)
Visibility: 9 miles (14 km)
Ceiling: at least 12,000 feet AGL
Clouds: sky clear below 12,000 feet AGL
Weather: no significant weather observed at this time

METAR text: CYHD 182300Z AUTO 27006KT 9SM CLR M16/M22 A3039 RMK SLP336
Conditions at: CYHD (DRYDEN AIRPORT , ON, CA) observed 2300 UTC 18 February 2019
Temperature: -16.0°C ( 3°F)
Dewpoint: -22.0°C (-8°F) [RH = 60%]
Pressure (altimeter): 30.39 inches Hg (1029.2 mb)
[Sea-level pressure: 1033.6 mb]
Winds: from the W (270 degrees) at 7 MPH (6 knots; 3.1 m/s)
Visibility: 9 miles (14 km)
Ceiling: at least 12,000 feet AGL
Clouds: sky clear below 12,000 feet AGL
Weather: no significant weather observed at this time

METAR text: CYHD 182200Z AUTO VRB02KT 9SM FEW120 M14/M22 A3039 RMK SLP339
Conditions at: CYHD (DRYDEN AIRPORT , ON, CA) observed 2200 UTC 18 February 2019
Temperature: -14.0°C ( 7°F)
Dewpoint: -22.0°C (-8°F) [RH = 51%]
Pressure (altimeter): 30.39 inches Hg (1029.2 mb)
[Sea-level pressure: 1033.9 mb]
Winds: variable direction winds at 2 MPH (2 knots; 1.0 m/s)
Visibility: 9 miles (14 km)
Ceiling: at least 12,000 feet AGL
Clouds: few clouds at 12000 feet AGL
Weather: no significant weather observed at this time

METAR text: CYHD 182100Z AUTO 33003KT 310V070 9SM BKN130 M14/M22 A3039 RMK SLP340
Conditions at: CYHD (DRYDEN AIRPORT , ON, CA) observed 2100 UTC 18 February 2019
Temperature: -14.0°C ( 7°F)
Dewpoint: -22.0°C (-8°F) [RH = 51%]
Pressure (altimeter): 30.39 inches Hg (1029.2 mb)
[Sea-level pressure: 1034.0 mb]
Winds: from the NNW (330 degrees) at 3 MPH (3 knots; 1.5 m/s)
Visibility: 9 miles (14 km)
Ceiling: 13000 feet AGL
Clouds: broken clouds at 13000 feet AGL
Weather: no significant weather observed at this time

METAR text: CYHD 182000Z AUTO /////KT OVC130 RMK WND MISG WX MISG VIS MISG PCPN MISG T MISG TD MISG DENSITY ALT MISG
Conditions at: CYHD (DRYDEN AIRPORT , ON, CA) observed 2000 UTC 18 February 2019
Temperature: missing
Dewpoint: missing
Pressure (altimeter): missing
Winds: missing
Visibility: missing
Ceiling: 13000 feet AGL
Clouds: overcast cloud deck at 13000 feet AGL
Weather: no significant weather observed at this time

METAR text: CYHD 181900Z AUTO 27003KT 200V320 9SM M15/M22 A3040 RMK CLD MISG SLP343
Conditions at: CYHD (DRYDEN AIRPORT , ON, CA) observed 1900 UTC 18 February 2019
Temperature: -15.0°C ( 5°F)
Dewpoint: -22.0°C (-8°F) [RH = 55%]
Pressure (altimeter): 30.40 inches Hg (1029.5 mb)
[Sea-level pressure: 1034.3 mb]
Winds: from the W (270 degrees) at 3 MPH (3 knots; 1.5 m/s)
Visibility: 9 miles (14 km)
Ceiling: unknown
Clouds: missing
Weather: no significant weather observed at this time

METAR text: CYHD 181800Z AUTO 25007KT 9SM CLR M17/M23 A3042 RMK SLP349
Conditions at: CYHD (DRYDEN AIRPORT , ON, CA) observed 1800 UTC 18 February 2019
Temperature: -17.0°C ( 1°F)
Dewpoint: -23.0°C (-9°F) [RH = 60%]
Pressure (altimeter): 30.42 inches Hg (1030.2 mb)
[Sea-level pressure: 1034.9 mb]
Winds: from the WSW (250 degrees) at 8 MPH (7 knots; 3.6 m/s)
Visibility: 9 miles (14 km)
Ceiling: at least 12,000 feet AGL
Clouds: sky clear below 12,000 feet AGL
Weather: no significant weather observed at this time

METAR text: CYHD 181700Z AUTO 26004KT 9SM SCT065 M18/M23 A3042 RMK SLP350
Conditions at: CYHD (DRYDEN AIRPORT , ON, CA) observed 1700 UTC 18 February 2019
Temperature: -18.0°C (-0°F)
Dewpoint: -23.0°C (-9°F) [RH = 65%]
Pressure (altimeter): 30.42 inches Hg (1030.2 mb)
[Sea-level pressure: 1035.0 mb]
Winds: from the W (260 degrees) at 5 MPH (4 knots; 2.1 m/s)
Visibility: 9 miles (14 km)
Ceiling: at least 12,000 feet AGL
Clouds: scattered clouds at 6500 feet AGL
Weather: no significant weather observed at this time

METAR text: CYHD 181600Z AUTO 00000KT 9SM CLR M21/M24 A3041 RMK SLP349
Conditions at: CYHD (DRYDEN AIRPORT , ON, CA) observed 1600 UTC 18 February 2019
Temperature: -21.0°C (-6°F)
Dewpoint: -24.0°C (-11°F) [RH = 77%]
Pressure (altimeter): 30.41 inches Hg (1029.9 mb)
[Sea-level pressure: 1034.9 mb]
Winds: calm
Visibility: 9 miles (14 km)
Ceiling: at least 12,000 feet AGL
Clouds: sky clear below 12,000 feet AGL
Weather: no significant weather observed at this time

METAR text: CYHD 181500Z AUTO 03003KT 9SM CLR M24/M27 A3040 RMK SLP346
Conditions at: CYHD (DRYDEN AIRPORT , ON, CA) observed 1500 UTC 18 February 2019
Temperature: -24.0°C (-11°F)
Dewpoint: -27.0°C (-17°F) [RH = 76%]
Pressure (altimeter): 30.40 inches Hg (1029.5 mb)
[Sea-level pressure: 1034.6 mb]
Winds: from the NNE (30 degrees) at 3 MPH (3 knots; 1.5 m/s)
Visibility: 9 miles (14 km)
Ceiling: at least 12,000 feet AGL
Clouds: sky clear below 12,000 feet AGL
Weather: no significant weather observed at this time

METAR text: CYHD 181400Z AUTO 03003KT 9SM CLR M27/M30 A3038 RMK SLP342
Conditions at: CYHD (DRYDEN AIRPORT , ON, CA) observed 1400 UTC 18 February 2019
Temperature: -27.0°C (-17°F)
Dewpoint: -30.0°C (-22°F) [RH = 76%]
Pressure (altimeter): 30.38 inches Hg (1028.9 mb)
[Sea-level pressure: 1034.2 mb]
Winds: from the NNE (30 degrees) at 3 MPH (3 knots; 1.5 m/s)
Visibility: 9 miles (14 km)
Ceiling: at least 12,000 feet AGL
Clouds: sky clear below 12,000 feet AGL
Weather: no significant weather observed at this time

METAR text: CYHD 181300Z AUTO 04004KT 9SM CLR M25/M27 A3036 RMK SLP332
Conditions at: CYHD (DRYDEN AIRPORT , ON, CA) observed 1300 UTC 18 February 2019
Temperature: -25.0°C (-13°F)
Dewpoint: -27.0°C (-17°F) [RH = 83%]
Pressure (altimeter): 30.36 inches Hg (1028.2 mb)
[Sea-level pressure: 1033.2 mb]
Winds: from the NE (40 degrees) at 5 MPH (4 knots; 2.1 m/s)
Visibility: 9 miles (14 km)
Ceiling: at least 12,000 feet AGL
Clouds: sky clear below 12,000 feet AGL
Weather: no significant weather observed at this time

METAR text: CYHD 181200Z AUTO 04003KT 9SM CLR M25/M27 A3036 RMK SLP330
Conditions at: CYHD (DRYDEN AIRPORT , ON, CA) observed 1200 UTC 18 February 2019
Temperature: -25.0°C (-13°F)
Dewpoint: -27.0°C (-17°F) [RH = 83%]
Pressure (altimeter): 30.36 inches Hg (1028.2 mb)
[Sea-level pressure: 1033.0 mb]
Winds: from the NE (40 degrees) at 3 MPH (3 knots; 1.5 m/s)
Visibility: 9 miles (14 km)
Ceiling: at least 12,000 feet AGL
Clouds: sky clear below 12,000 feet AGL
Weather: no significant weather observed at this time

METAR text: CYHD 181100Z AUTO /////KT 9SM CLR RMK WND MISG T MISG TD MISG DENSITY ALT MISG
Conditions at: CYHD (DRYDEN AIRPORT , ON, CA) observed 1100 UTC 18 February 2019
Temperature: missing
Dewpoint: missing
Pressure (altimeter): missing
Winds: missing
Visibility: 9 miles (14 km)
Ceiling: at least 12,000 feet AGL
Clouds: sky clear below 12,000 feet AGL
Weather: no significant weather observed at this time

METAR text: CYHD 181000Z AUTO 36003KT 9SM CLR M23/M25 A3034 RMK SLP322
Conditions at: CYHD (DRYDEN AIRPORT , ON, CA) observed 1000 UTC 18 February 2019
Temperature: -23.0°C (-9°F)
Dewpoint: -25.0°C (-13°F) [RH = 84%]
Pressure (altimeter): 30.34 inches Hg (1027.5 mb)
[Sea-level pressure: 1032.2 mb]
Winds: from the N (360 degrees) at 3 MPH (3 knots; 1.5 m/s)
Visibility: 9 miles (14 km)
Ceiling: at least 12,000 feet AGL
Clouds: sky clear below 12,000 feet AGL
Weather: no significant weather observed at this time

METAR text: CYHD 180900Z AUTO 02004KT 9SM CLR M22/M24 A3034 RMK SLP320
Conditions at: CYHD (DRYDEN AIRPORT , ON, CA) observed 0900 UTC 18 February 2019
Temperature: -22.0°C (-8°F)
Dewpoint: -24.0°C (-11°F) [RH = 84%]
Pressure (altimeter): 30.34 inches Hg (1027.5 mb)
[Sea-level pressure: 1032.0 mb]
Winds: from the NNE (20 degrees) at 5 MPH (4 knots; 2.1 m/s)
Visibility: 9 miles (14 km)
Ceiling: at least 12,000 feet AGL
Clouds: sky clear below 12,000 feet AGL
Weather: no significant weather observed at this time

METAR text: CYHD 180800Z AUTO 01005KT 9SM CLR M21/M24 A3032 RMK SLP315
Conditions at: CYHD (DRYDEN AIRPORT , ON, CA) observed 0800 UTC 18 February 2019
Temperature: -21.0°C (-6°F)
Dewpoint: -24.0°C (-11°F) [RH = 77%]
Pressure (altimeter): 30.32 inches Hg (1026.8 mb)
[Sea-level pressure: 1031.5 mb]
Winds: from the N (10 degrees) at 6 MPH (5 knots; 2.6 m/s)
Visibility: 9 miles (14 km)
Ceiling: at least 12,000 feet AGL
Clouds: sky clear below 12,000 feet AGL
Weather: no significant weather observed at this time

METAR text: CYHD 180700Z AUTO 04002KT 9SM CLR M20/M23 A3031 RMK SLP310
Conditions at: CYHD (DRYDEN AIRPORT , ON, CA) observed 0700 UTC 18 February 2019
Temperature: -20.0°C (-4°F)
Dewpoint: -23.0°C (-9°F) [RH = 77%]
Pressure (altimeter): 30.31 inches Hg (1026.5 mb)
[Sea-level pressure: 1031.0 mb]
Winds: from the NE (40 degrees) at 2 MPH (2 knots; 1.0 m/s)
Visibility: 9 miles (14 km)
Ceiling: at least 12,000 feet AGL
Clouds: sky clear below 12,000 feet AGL
Weather: no significant weather observed at this time

METAR text: CYHD 180600Z AUTO 03005KT 9SM CLR M20/M22 A3029 RMK SLP305
Conditions at: CYHD (DRYDEN AIRPORT , ON, CA) observed 0600 UTC 18 February 2019
Temperature: -20.0°C (-4°F)
Dewpoint: -22.0°C (-8°F) [RH = 84%]
Pressure (altimeter): 30.29 inches Hg (1025.8 mb)
[Sea-level pressure: 1030.5 mb]
Winds: from the NNE (30 degrees) at 6 MPH (5 knots; 2.6 m/s)
Visibility: 9 miles (14 km)
Ceiling: at least 12,000 feet AGL
Clouds: sky clear below 12,000 feet AGL
Weather: no significant weather observed at this time

METAR text: CYHD 180500Z AUTO 02006KT 9SM CLR M19/M22 A3029 RMK SLP303
Conditions at: CYHD (DRYDEN AIRPORT , ON, CA) observed 0500 UTC 18 February 2019
Temperature: -19.0°C (-2°F)
Dewpoint: -22.0°C (-8°F) [RH = 77%]
Pressure (altimeter): 30.29 inches Hg (1025.8 mb)
[Sea-level pressure: 1030.3 mb]
Winds: from the NNE (20 degrees) at 7 MPH (6 knots; 3.1 m/s)
Visibility: 9 miles (14 km)
Ceiling: at least 12,000 feet AGL
Clouds: sky clear below 12,000 feet AGL
Weather: no significant weather observed at this time

METAR text: CYHD 180400Z AUTO 04007KT 9SM CLR M19/M21 A3029 RMK SLP303
Conditions at: CYHD (DRYDEN AIRPORT , ON, CA) observed 0400 UTC 18 February 2019
Temperature: -19.0°C (-2°F)
Dewpoint: -21.0°C (-6°F) [RH = 84%]
Pressure (altimeter): 30.29 inches Hg (1025.8 mb)
[Sea-level pressure: 1030.3 mb]
Winds: from the NE (40 degrees) at 8 MPH (7 knots; 3.6 m/s)
Visibility: 9 miles (14 km)
Ceiling: at least 12,000 feet AGL
Clouds: sky clear below 12,000 feet AGL
Weather: no significant weather observed at this time

METAR text: CYHD 180300Z AUTO 02004KT 9SM FEW170 SCT200 M17/M21 A3028 RMK SLP301
Conditions at: CYHD (DRYDEN AIRPORT , ON, CA) observed 0300 UTC 18 February 2019
Temperature: -17.0°C ( 1°F)
Dewpoint: -21.0°C (-6°F) [RH = 71%]
Pressure (altimeter): 30.28 inches Hg (1025.5 mb)
[Sea-level pressure: 1030.1 mb]
Winds: from the NNE (20 degrees) at 5 MPH (4 knots; 2.1 m/s)
Visibility: 9 miles (14 km)
Ceiling: at least 12,000 feet AGL
Clouds: few clouds at 17000 feet AGL
scattered clouds at 20000 feet AGL
Weather: no significant weather observed at this time

METAR text: CYHD 180200Z AUTO 03006KT 9SM FEW150 M17/M20 A3027 RMK SLP296
Conditions at: CYHD (DRYDEN AIRPORT , ON, CA) observed 0200 UTC 18 February 2019
Temperature: -17.0°C ( 1°F)
Dewpoint: -20.0°C (-4°F) [RH = 77%]
Pressure (altimeter): 30.27 inches Hg (1025.1 mb)
[Sea-level pressure: 1029.6 mb]
Winds: from the NNE (30 degrees) at 7 MPH (6 knots; 3.1 m/s)
Visibility: 9 miles (14 km)
Ceiling: at least 12,000 feet AGL
Clouds: few clouds at 15000 feet AGL
Weather: no significant weather observed at this time

METAR text: CYHD 180100Z AUTO 02006KT 9SM M16/M19 A3026 RMK CLD MISG SLP296
Conditions at: CYHD (DRYDEN AIRPORT , ON, CA) observed 0100 UTC 18 February 2019
Temperature: -16.0°C ( 3°F)
Dewpoint: -19.0°C (-2°F) [RH = 78%]
Pressure (altimeter): 30.26 inches Hg (1024.8 mb)
[Sea-level pressure: 1029.6 mb]
Winds: from the NNE (20 degrees) at 7 MPH (6 knots; 3.1 m/s)
Visibility: 9 miles (14 km)
Ceiling: unknown
Clouds: missing
Weather: no significant weather observed at this time

METAR text: CYHD 180000Z AUTO 02005KT 9SM CLR M15/M19 A3025 RMK SLP292
Conditions at: CYHD (DRYDEN AIRPORT , ON, CA) observed 0000 UTC 18 February 2019
Temperature: -15.0°C ( 5°F)
Dewpoint: -19.0°C (-2°F) [RH = 71%]
Pressure (altimeter): 30.25 inches Hg (1024.5 mb)
[Sea-level pressure: 1029.2 mb]
Winds: from the NNE (20 degrees) at 6 MPH (5 knots; 2.6 m/s)
Visibility: 9 miles (14 km)
Ceiling: at least 12,000 feet AGL
Clouds: sky clear below 12,000 feet AGL
Weather: no significant weather observed at this time

METAR text: CYHD 172300Z AUTO 02005KT 9SM CLR M14/M19 A3023 RMK SLP285
Conditions at: CYHD (DRYDEN AIRPORT , ON, CA) observed 2300 UTC 17 February 2019
Temperature: -14.0°C ( 7°F)
Dewpoint: -19.0°C (-2°F) [RH = 66%]
Pressure (altimeter): 30.23 inches Hg (1023.8 mb)
[Sea-level pressure: 1028.5 mb]
Winds: from the NNE (20 degrees) at 6 MPH (5 knots; 2.6 m/s)
Visibility: 9 miles (14 km)
Ceiling: at least 12,000 feet AGL
Clouds: sky clear below 12,000 feet AGL
Weather: no significant weather observed at this time

METAR text: CYHD 172200Z AUTO 05009KT 9SM CLR M14/M20 A3023 RMK SLP282
Conditions at: CYHD (DRYDEN AIRPORT , ON, CA) observed 2200 UTC 17 February 2019
Temperature: -14.0°C ( 7°F)
Dewpoint: -20.0°C (-4°F) [RH = 60%]
Pressure (altimeter): 30.23 inches Hg (1023.8 mb)
[Sea-level pressure: 1028.2 mb]
Winds: from the NE (50 degrees) at 10 MPH (9 knots; 4.6 m/s)
Visibility: 9 miles (14 km)
Ceiling: at least 12,000 feet AGL
Clouds: sky clear below 12,000 feet AGL
Weather: no significant weather observed at this time

METAR text: CYHD 172100Z AUTO 05005KT 360V070 9SM CLR M13/M18 A3022 RMK SLP280
Conditions at: CYHD (DRYDEN AIRPORT , ON, CA) observed 2100 UTC 17 February 2019
Temperature: -13.0°C ( 9°F)
Dewpoint: -18.0°C (-0°F) [RH = 66%]
Pressure (altimeter): 30.22 inches Hg (1023.5 mb)
[Sea-level pressure: 1028.0 mb]
Winds: from the NE (50 degrees) at 6 MPH (5 knots; 2.6 m/s)
Visibility: 9 miles (14 km)
Ceiling: at least 12,000 feet AGL
Clouds: sky clear below 12,000 feet AGL
Weather: no significant weather observed at this time

METAR text: CYHD 172000Z AUTO 05009KT 9SM FEW150 SCT170 M13/M19 A3022 RMK SLP278
Conditions at: CYHD (DRYDEN AIRPORT , ON, CA) observed 2000 UTC 17 February 2019
Temperature: -13.0°C ( 9°F)
Dewpoint: -19.0°C (-2°F) [RH = 61%]
Pressure (altimeter): 30.22 inches Hg (1023.5 mb)
[Sea-level pressure: 1027.8 mb]
Winds: from the NE (50 degrees) at 10 MPH (9 knots; 4.6 m/s)
Visibility: 9 miles (14 km)
Ceiling: at least 12,000 feet AGL
Clouds: few clouds at 15000 feet AGL
scattered clouds at 17000 feet AGL
Weather: no significant weather observed at this time

METAR text: CYHD 171900Z AUTO 06009KT 9SM FEW160 SCT200 M13/M19 A3022 RMK SLP278
Conditions at: CYHD (DRYDEN AIRPORT , ON, CA) observed 1900 UTC 17 February 2019
Temperature: -13.0°C ( 9°F)
Dewpoint: -19.0°C (-2°F) [RH = 61%]
Pressure (altimeter): 30.22 inches Hg (1023.5 mb)
[Sea-level pressure: 1027.8 mb]
Winds: from the ENE (60 degrees) at 10 MPH (9 knots; 4.6 m/s)
Visibility: 9 miles (14 km)
Ceiling: at least 12,000 feet AGL
Clouds: few clouds at 16000 feet AGL
scattered clouds at 20000 feet AGL
Weather: no significant weather observed at this time

METAR text: CYHD 171800Z AUTO 04009KT 9SM FEW230 M15/M17 A3023 RMK SLP281
Conditions at: CYHD (DRYDEN AIRPORT , ON, CA) observed 1800 UTC 17 February 2019
Temperature: -15.0°C ( 5°F)
Dewpoint: -17.0°C ( 1°F) [RH = 85%]
Pressure (altimeter): 30.23 inches Hg (1023.8 mb)
[Sea-level pressure: 1028.1 mb]
Winds: from the NE (40 degrees) at 10 MPH (9 knots; 4.6 m/s)
Visibility: 9 miles (14 km)
Ceiling: at least 12,000 feet AGL
Clouds: few clouds at 23000 feet AGL
Weather: no significant weather observed at this time

METAR text: CYHD 171700Z AUTO 04009KT 9SM BKN110 M15/M17 A3023 RMK SLP282
Conditions at: CYHD (DRYDEN AIRPORT , ON, CA) observed 1700 UTC 17 February 2019
Temperature: -15.0°C ( 5°F)
Dewpoint: -17.0°C ( 1°F) [RH = 85%]
Pressure (altimeter): 30.23 inches Hg (1023.8 mb)
[Sea-level pressure: 1028.2 mb]
Winds: from the NE (40 degrees) at 10 MPH (9 knots; 4.6 m/s)
Visibility: 9 miles (14 km)
Ceiling: 11000 feet AGL
Clouds: broken clouds at 11000 feet AGL
Weather: no significant weather observed at this time

Forecast for: CYHD (DRYDEN AIRPORT , ON, CA)
Text: TAF CYHD 190138Z 1902/1914 VRB03KT P6SM FEW120
Forecast period: 0200 to 1100 UTC 19 February 2019
Forecast type: FROM: standard forecast or significant change
Winds: variable direction winds at 3 MPH (3 knots; 1.5 m/s)
Visibility: 6 or more miles 10+ km)
Ceiling: at least 12,000 feet AGL
Clouds: few clouds at 12000 feet AGL
Weather: no significant weather forecast for this period
Text: BECMG 1911/1913 22010KT RMK FCST BASED ON AUTO OBS. NXT FCST BY 190800Z
Forecast period: 1100 to 1400 UTC 19 February 2019
Forecast type: BECOMING: Conditions expected to become as follows by 1300 UTC 19 February 2019
Winds: from the SW (220 degrees) at 12 MPH (10 knots; 5.1 m/s)
Visibility: 6 or more miles 10+ km)
Ceiling: at least 12,000 feet AGL
Clouds: few clouds at 12000 feet AGL
Weather: no significant weather forecast for this period